createdAt,value
2023-02-09T00:01:24.498Z,5.40
2023-02-09T00:03:53.187Z,4.95
2023-02-09T00:06:24.706Z,5.25
2023-02-09T00:08:52.547Z,5.50
2023-02-09T00:11:22.480Z,5.90
2023-02-09T00:13:49.378Z,5.35
2023-02-09T00:16:17.177Z,5.20
2023-02-09T00:18:44.978Z,5.13
2023-02-09T00:21:12.776Z,5.32
2023-02-09T00:23:42.357Z,5.35
2023-02-09T00:26:12.446Z,5.55
2023-02-09T00:28:43.871Z,5.50
2023-02-09T00:31:14.037Z,5.72
2023-02-09T00:33:42.240Z,5.43
2023-02-09T00:36:12.871Z,6.13
2023-02-09T00:38:44.140Z,5.53
2023-02-09T00:41:12.872Z,5.13
2023-02-09T00:43:41.377Z,5.20
2023-02-09T00:46:10.125Z,5.30
2023-02-09T00:48:37.982Z,5.72
2023-02-09T00:51:06.186Z,5.40
2023-02-09T00:53:36.217Z,5.00
2023-02-09T00:56:05.933Z,5.93
2023-02-09T00:58:33.744Z,5.90
2023-02-09T01:01:01.545Z,5.43
2023-02-09T01:03:29.600Z,5.90
2023-02-09T01:05:59.659Z,5.10
2023-02-09T01:08:28.895Z,5.72
2023-02-09T01:10:56.760Z,4.82
2023-02-09T01:13:26.269Z,5.53
2023-02-09T01:15:54.045Z,5.35
2023-02-09T01:18:21.862Z,4.93
2023-02-09T01:20:49.678Z,4.75
2023-02-09T01:23:17.478Z,5.85
2023-02-09T01:25:45.879Z,5.13
2023-02-09T01:28:13.807Z,5.43
2023-02-09T01:30:43.200Z,5.40
2023-02-09T01:33:11.227Z,5.82
2023-02-09T01:35:39.049Z,5.80
2023-02-09T01:38:06.828Z,5.85
2023-02-09T01:40:34.956Z,5.55
2023-02-09T01:43:02.854Z,5.90
2023-02-09T01:45:37.049Z,5.70
2023-02-09T01:48:06.464Z,6.40
2023-02-09T01:50:39.368Z,5.90
2023-02-09T01:53:08.870Z,5.68
2023-02-09T01:55:41.742Z,5.88
2023-02-09T01:58:13.117Z,6.13
2023-02-09T02:00:41.544Z,5.65
2023-02-09T02:03:16.482Z,6.38
2023-02-09T02:05:51.824Z,6.05
2023-02-09T02:08:27.493Z,6.00
2023-02-09T02:10:56.142Z,5.82
2023-02-09T02:13:24.020Z,5.93
2023-02-09T02:16:00.235Z,6.13
2023-02-09T02:18:43.494Z,5.72
2023-02-09T02:21:50.187Z,6.10
2023-02-09T02:24:40.449Z,5.55
2023-02-09T02:27:16.276Z,5.85
2023-02-09T02:30:24.030Z,6.10
2023-02-09T02:33:05.808Z,5.75
2023-02-09T02:35:38.006Z,5.72
2023-02-09T02:38:17.229Z,6.50
2023-02-09T02:40:55.747Z,6.13
2023-02-09T02:43:37.140Z,6.30
2023-02-09T02:46:09.834Z,6.10
2023-02-09T02:48:43.439Z,6.28
2023-02-09T02:51:15.848Z,6.38
2023-02-09T02:53:49.479Z,6.22
2023-02-09T02:56:22.106Z,6.78
2023-02-09T02:58:54.012Z,6.20
2023-02-09T03:01:25.872Z,6.35
2023-02-09T03:03:55.829Z,6.75
2023-02-09T03:06:23.726Z,5.90
2023-02-09T03:08:54.067Z,6.43
2023-02-09T03:11:24.983Z,6.68
2023-02-09T03:14:06.923Z,6.35
2023-02-09T03:16:42.298Z,5.68
2023-02-09T03:19:24.499Z,6.63
2023-02-09T03:21:56.850Z,6.93
2023-02-09T03:24:33.983Z,6.30
2023-02-09T03:27:07.758Z,6.70
2023-02-09T03:29:38.658Z,6.50
2023-02-09T03:32:07.843Z,7.00
2023-02-09T03:34:37.349Z,6.80
2023-02-09T03:37:05.641Z,6.40
2023-02-09T03:39:33.430Z,6.88
2023-02-09T03:42:01.322Z,6.82
2023-02-09T03:44:29.112Z,6.22
2023-02-09T03:46:58.981Z,7.05
2023-02-09T03:49:28.076Z,6.60
2023-02-09T03:51:57.208Z,6.80
2023-02-09T03:54:25.221Z,6.70
2023-02-09T03:56:52.979Z,6.93
2023-02-09T03:59:21.480Z,7.05
2023-02-09T04:01:49.405Z,7.60
2023-02-09T04:04:17.172Z,6.63
2023-02-09T04:06:45.100Z,6.80
2023-02-09T04:09:15.109Z,7.35
2023-02-09T04:11:42.925Z,6.85
2023-02-09T04:14:10.938Z,7.28
2023-02-09T04:16:39.099Z,6.45
2023-02-09T04:19:09.141Z,7.07
2023-02-09T04:21:37.779Z,7.03
2023-02-09T04:24:07.377Z,6.32
2023-02-09T04:26:37.173Z,6.60
2023-02-09T04:29:05.066Z,7.50
2023-02-09T04:31:33.040Z,7.15
2023-02-09T04:34:00.874Z,7.32
2023-02-09T04:36:28.663Z,6.60
2023-02-09T04:38:56.480Z,7.13
2023-02-09T04:41:24.249Z,6.13
2023-02-09T04:43:53.408Z,7.35
2023-02-09T04:46:21.485Z,7.28
2023-02-09T04:48:49.441Z,7.38
2023-02-09T04:51:17.521Z,7.20
2023-02-09T04:53:45.428Z,7.70
2023-02-09T04:56:15.927Z,6.97
2023-02-09T04:59:03.673Z,7.78
2023-02-09T05:01:33.233Z,6.95
2023-02-09T05:04:01.150Z,7.75
2023-02-09T05:06:29.071Z,7.22
2023-02-09T05:08:56.838Z,7.13
2023-02-09T05:11:25.658Z,7.13
2023-02-09T05:13:53.549Z,8.40
2023-02-09T05:16:21.461Z,6.88
2023-02-09T05:18:51.319Z,7.40
2023-02-09T05:21:19.472Z,8.05
2023-02-09T05:23:47.274Z,7.53
2023-02-09T05:26:15.046Z,7.60
2023-02-09T05:28:42.911Z,7.03
2023-02-09T05:31:10.887Z,7.28
2023-02-09T05:33:38.726Z,6.88
2023-02-09T05:36:09.864Z,6.78
2023-02-09T05:38:37.825Z,6.78
2023-02-09T05:41:07.164Z,7.45
2023-02-09T05:43:35.402Z,7.85
2023-02-09T05:46:05.188Z,8.07
2023-02-09T05:48:34.271Z,7.03
2023-02-09T05:51:02.165Z,7.72
2023-02-09T05:53:31.349Z,7.53
2023-02-09T05:55:59.222Z,7.85
2023-02-09T05:58:27.048Z,7.53
2023-02-09T06:00:54.868Z,7.82
2023-02-09T06:03:22.723Z,7.88
2023-02-09T06:05:50.561Z,7.60
2023-02-09T06:08:18.387Z,7.78
2023-02-09T06:10:47.942Z,7.72
2023-02-09T06:13:15.977Z,8.77
2023-02-09T06:15:43.798Z,8.25
2023-02-09T06:18:11.646Z,7.93
2023-02-09T06:20:39.514Z,8.80
2023-02-09T06:23:07.365Z,8.55
2023-02-09T06:25:35.113Z,8.23
2023-02-09T06:28:04.574Z,7.68
2023-02-09T06:30:33.012Z,7.72
2023-02-09T06:33:00.935Z,7.88
2023-02-09T06:35:28.877Z,8.45
2023-02-09T06:37:57.965Z,7.70
2023-02-09T06:40:26.021Z,7.93
2023-02-09T06:42:53.780Z,7.88
2023-02-09T06:45:22.897Z,8.10
2023-02-09T06:47:50.731Z,8.68
2023-02-09T06:50:19.206Z,8.43
2023-02-09T06:52:47.723Z,8.25
2023-02-09T06:55:15.976Z,8.05
2023-02-09T06:57:43.931Z,7.68
2023-02-09T07:00:14.011Z,8.07
2023-02-09T07:02:44.118Z,8.40
2023-02-09T07:05:12.527Z,8.05
2023-02-09T07:07:40.640Z,9.18
2023-02-09T07:10:09.969Z,8.57
2023-02-09T07:12:40.336Z,8.18
2023-02-09T07:15:09.160Z,8.27
2023-02-09T07:17:37.138Z,8.30
2023-02-09T07:20:07.416Z,8.25
2023-02-09T07:22:35.291Z,7.82
2023-02-09T07:25:03.242Z,8.38
2023-02-09T07:27:31.047Z,8.25
2023-02-09T07:30:00.825Z,9.40
2023-02-09T07:32:29.148Z,8.60
2023-02-09T07:34:56.948Z,8.85
2023-02-09T07:37:26.143Z,9.98
2023-02-09T07:39:53.944Z,9.23
2023-02-09T07:42:23.349Z,8.85
2023-02-09T07:44:57.737Z,8.90
2023-02-09T07:47:25.575Z,9.13
2023-02-09T07:49:53.384Z,9.02
2023-02-09T07:52:21.265Z,9.40
2023-02-09T07:54:51.871Z,8.20
2023-02-09T07:57:19.718Z,9.32
2023-02-09T07:59:47.542Z,8.63
2023-02-09T08:02:22.019Z,9.32
2023-02-09T08:04:50.888Z,9.30
2023-02-09T08:07:18.658Z,9.23
2023-02-09T08:09:47.060Z,9.70
2023-02-09T08:12:16.732Z,9.18
2023-02-09T08:14:48.345Z,9.88
2023-02-09T08:17:24.279Z,9.65
2023-02-09T08:19:55.846Z,8.95
2023-02-09T08:22:26.257Z,9.77
2023-02-09T08:24:54.517Z,9.38
2023-02-09T08:27:23.827Z,9.60
2023-02-09T08:29:51.915Z,9.40
2023-02-09T08:32:19.720Z,8.98
2023-02-09T08:34:47.655Z,8.80
2023-02-09T08:37:15.595Z,9.10
2023-02-09T08:39:43.424Z,9.40
2023-02-09T08:42:11.195Z,9.00
2023-02-09T08:44:40.410Z,10.32
2023-02-09T08:47:08.328Z,9.35
2023-02-09T08:49:36.902Z,9.48
2023-02-09T08:52:04.979Z,9.45
2023-02-09T08:54:32.807Z,9.30
2023-02-09T08:57:00.567Z,8.52
2023-02-09T08:59:28.645Z,9.15
2023-02-09T09:01:57.805Z,9.50
2023-02-09T09:04:25.787Z,9.95
2023-02-09T09:06:54.962Z,9.18
2023-02-09T09:09:22.833Z,10.27
2023-02-09T09:11:50.638Z,10.55
2023-02-09T09:14:18.600Z,9.93
2023-02-09T09:16:46.496Z,9.95
2023-02-09T09:19:16.069Z,9.55
2023-02-09T09:21:44.010Z,9.90
2023-02-09T09:24:11.856Z,9.05
2023-02-09T09:26:39.664Z,10.07
2023-02-09T09:29:07.566Z,9.77
2023-02-09T09:31:35.458Z,10.20
2023-02-09T09:34:03.338Z,9.95
2023-02-09T09:36:32.581Z,9.32
2023-02-09T09:39:00.430Z,10.35
2023-02-09T09:41:32.785Z,11.30
2023-02-09T09:44:02.154Z,10.80
2023-02-09T09:46:36.515Z,9.70
2023-02-09T09:49:05.590Z,9.50
2023-02-09T09:51:42.947Z,9.70
2023-02-09T09:54:17.428Z,9.45
2023-02-09T09:56:45.604Z,10.13
2023-02-09T09:59:17.677Z,9.35
2023-02-09T10:01:45.929Z,10.10
2023-02-09T10:04:17.137Z,10.30
2023-02-09T10:06:57.342Z,10.30
2023-02-09T10:09:34.292Z,10.40
2023-02-09T10:12:16.030Z,10.32
2023-02-09T10:14:44.079Z,9.63
2023-02-09T10:17:11.984Z,10.48
2023-02-09T10:19:39.893Z,9.32
2023-02-09T10:22:13.496Z,10.43
2023-02-09T10:24:41.996Z,11.85
2023-02-09T10:27:15.717Z,12.02
2023-02-09T10:29:43.668Z,13.10
2023-02-09T10:32:17.691Z,12.45
2023-02-09T10:34:48.777Z,11.48
2023-02-09T10:37:23.777Z,11.30
2023-02-09T10:40:01.013Z,10.63
2023-02-09T10:42:32.162Z,9.80
2023-02-09T10:45:08.533Z,9.93
2023-02-09T10:47:36.445Z,9.02
2023-02-09T10:50:17.113Z,9.48
2023-02-09T10:52:57.797Z,9.25
2023-02-09T10:55:29.193Z,9.18
2023-02-09T10:58:13.411Z,9.73
2023-02-09T11:00:50.172Z,8.95
2023-02-09T11:03:20.261Z,9.48
2023-02-09T11:05:56.795Z,9.30
2023-02-09T11:08:44.352Z,8.75
2023-02-09T11:11:30.516Z,9.55
2023-02-09T11:13:58.754Z,9.00
2023-02-09T11:16:59.037Z,9.30
2023-02-09T11:19:45.213Z,9.13
2023-02-09T11:22:15.484Z,8.55
2023-02-09T11:24:55.077Z,9.18
2023-02-09T11:27:36.142Z,8.63
2023-02-09T11:30:16.305Z,8.75
2023-02-09T11:32:51.557Z,8.65
2023-02-09T11:35:20.894Z,8.57
2023-02-09T11:37:56.254Z,9.27
2023-02-09T11:40:32.494Z,9.02
2023-02-09T11:43:12.585Z,8.60
2023-02-09T11:45:45.903Z,9.27
2023-02-09T11:48:18.302Z,9.15
2023-02-09T11:50:56.966Z,9.60
2023-02-09T11:53:32.349Z,9.10
2023-02-09T11:56:04.959Z,9.05
2023-02-09T11:58:43.830Z,9.00
2023-02-09T12:01:27.632Z,8.57
2023-02-09T12:04:02.530Z,8.82
2023-02-09T12:06:36.824Z,8.70
2023-02-09T12:09:17.492Z,9.05
2023-02-09T12:11:58.602Z,8.68
2023-02-09T12:14:46.304Z,8.55
2023-02-09T12:17:18.649Z,9.13
2023-02-09T12:19:54.924Z,8.35
2023-02-09T12:22:49.078Z,8.30
2023-02-09T12:25:23.494Z,7.70
2023-02-09T12:28:34.321Z,8.95
2023-02-09T12:31:07.592Z,7.32
2023-02-09T12:33:38.574Z,8.35
2023-02-09T12:36:26.713Z,8.60
2023-02-09T12:39:23.775Z,8.30
2023-02-09T12:42:28.025Z,8.43
2023-02-09T12:45:00.580Z,7.75
2023-02-09T12:47:44.763Z,8.02
2023-02-09T12:50:24.556Z,7.78
2023-02-09T12:53:37.038Z,8.15
2023-02-09T12:56:26.760Z,7.50
2023-02-09T12:58:57.817Z,7.75
2023-02-09T13:02:20.595Z,7.85
2023-02-09T13:05:00.894Z,7.07
2023-02-09T13:07:46.882Z,7.07
2023-02-09T13:10:24.530Z,7.55
2023-02-09T13:12:58.094Z,7.25
2023-02-09T13:15:30.299Z,7.32
2023-02-09T13:18:05.790Z,7.10
2023-02-09T13:20:58.138Z,7.47
2023-02-09T13:23:34.730Z,7.20
2023-02-09T13:26:15.668Z,7.13
2023-02-09T13:28:43.542Z,7.55
2023-02-09T13:31:27.059Z,6.97
2023-02-09T13:34:00.184Z,6.93
2023-02-09T13:39:08.488Z,6.90
2023-02-09T13:41:38.300Z,7.47
2023-02-09T13:44:20.627Z,6.75
2023-02-09T13:46:53.278Z,7.47
2023-02-09T13:49:22.871Z,7.65
2023-02-09T13:52:17.962Z,8.07
2023-02-09T13:54:45.882Z,7.85
2023-02-09T13:57:32.637Z,8.70
2023-02-09T14:00:10.220Z,7.10
2023-02-09T14:02:51.012Z,7.20
2023-02-09T14:05:29.530Z,7.05
2023-02-09T14:07:59.323Z,7.03
2023-02-09T14:10:28.269Z,6.97
2023-02-09T14:13:01.395Z,7.05
2023-02-09T14:15:53.668Z,7.38
2023-02-09T14:18:30.776Z,6.60
2023-02-09T14:21:03.425Z,6.82
2023-02-09T14:23:35.432Z,6.93
2023-02-09T14:26:05.680Z,7.20
2023-02-09T14:28:34.038Z,6.97
2023-02-09T14:31:02.002Z,7.15
2023-02-09T14:33:31.302Z,6.93
2023-02-09T14:36:01.911Z,6.63
2023-02-09T14:38:39.761Z,7.00
2023-02-09T14:41:28.107Z,6.85
2023-02-09T14:44:04.811Z,6.40
2023-02-09T14:46:49.156Z,6.68
2023-02-09T14:49:17.446Z,6.43
2023-02-09T14:51:45.853Z,6.43
2023-02-09T14:54:23.654Z,6.60
2023-02-09T14:56:51.870Z,6.57
2023-02-09T14:59:21.194Z,6.93
2023-02-09T15:01:51.236Z,6.82
2023-02-09T15:04:19.217Z,7.07
2023-02-09T15:06:49.453Z,6.75
2023-02-09T15:09:23.620Z,6.13
2023-02-09T15:12:06.361Z,6.45
2023-02-09T15:14:39.314Z,6.30
2023-02-09T15:17:18.837Z,5.80
2023-02-09T15:19:47.731Z,6.65
2023-02-09T15:22:17.001Z,6.65
2023-02-09T15:24:47.954Z,6.35
2023-02-09T15:27:24.170Z,6.50
2023-02-09T15:29:52.113Z,6.60
2023-02-09T15:32:22.007Z,6.22
2023-02-09T15:34:51.708Z,6.25
2023-02-09T15:37:22.886Z,6.13
2023-02-09T15:39:55.865Z,6.30
2023-02-09T15:42:41.162Z,6.63
2023-02-09T15:45:37.659Z,6.47
2023-02-09T15:48:05.989Z,5.93
2023-02-09T15:50:36.158Z,6.32
2023-02-09T15:53:09.715Z,6.70
2023-02-09T15:55:40.513Z,6.60
2023-02-09T15:58:13.936Z,6.22
2023-02-09T16:00:41.954Z,6.25
2023-02-09T16:03:16.270Z,7.05
2023-02-09T16:05:44.507Z,6.47
2023-02-09T16:08:19.009Z,6.22
2023-02-09T16:10:49.525Z,6.47
2023-02-09T16:13:19.542Z,6.75
2023-02-09T16:15:47.973Z,6.63
2023-02-09T16:18:16.139Z,6.70
2023-02-09T16:20:47.170Z,6.68
2023-02-09T16:23:20.955Z,6.63
2023-02-09T16:25:51.843Z,7.15
2023-02-09T16:28:20.949Z,6.47
2023-02-09T16:30:52.289Z,6.55
2023-02-09T16:33:20.262Z,7.20
2023-02-09T16:35:54.197Z,6.80
2023-02-09T16:38:23.587Z,7.45
2023-02-09T16:40:54.024Z,7.45
2023-02-09T16:43:22.756Z,7.43
2023-02-09T16:46:02.840Z,7.38
2023-02-09T16:48:34.448Z,6.72
2023-02-09T16:51:02.564Z,7.25
2023-02-09T16:53:33.847Z,6.93
2023-02-09T16:56:06.345Z,7.75
2023-02-09T16:58:34.168Z,7.60
2023-02-09T17:01:02.104Z,7.55
2023-02-09T17:03:34.953Z,7.30
2023-02-09T17:06:03.409Z,7.43
2023-02-09T17:08:33.105Z,7.47
2023-02-09T17:11:03.580Z,7.65
2023-02-09T17:13:32.073Z,8.00
2023-02-09T17:16:01.864Z,8.38
2023-02-09T17:18:32.565Z,8.25
2023-02-09T17:21:02.960Z,8.18
2023-02-09T17:23:32.408Z,8.82
2023-02-09T17:26:00.478Z,8.93
2023-02-09T17:28:30.529Z,7.93
2023-02-09T17:31:00.632Z,8.70
2023-02-09T17:33:31.898Z,9.50
2023-02-09T17:38:48.932Z,10.18
2023-02-09T17:41:20.011Z,10.52
2023-02-09T17:43:50.554Z,10.43
2023-02-09T17:46:19.866Z,10.30
2023-02-09T17:48:47.842Z,12.77
2023-02-09T17:51:20.807Z,12.68
2023-02-09T17:53:48.988Z,13.15
2023-02-09T17:56:17.002Z,13.48
2023-02-09T17:58:45.394Z,12.88
2023-02-09T18:01:26.087Z,13.23
2023-02-09T18:03:54.817Z,12.52
2023-02-09T18:06:28.279Z,11.48
2023-02-09T18:08:56.038Z,10.70
2023-02-09T18:11:40.473Z,10.25
2023-02-09T18:14:09.865Z,9.63
2023-02-09T18:16:39.178Z,9.32
2023-02-09T18:19:07.011Z,10.25
2023-02-09T18:21:35.274Z,9.70
2023-02-09T18:24:03.581Z,9.25
2023-02-09T18:26:31.477Z,10.55
2023-02-09T18:28:59.284Z,11.13
2023-02-09T18:31:27.033Z,13.55
2023-02-09T18:33:56.294Z,15.38
2023-02-09T18:36:24.067Z,13.77
2023-02-09T18:38:53.441Z,13.10
2023-02-09T18:41:21.326Z,13.20
2023-02-09T18:43:49.771Z,13.35
2023-02-09T18:46:19.540Z,12.60
2023-02-09T18:48:47.977Z,11.10
2023-02-09T18:51:17.435Z,11.07
2023-02-09T18:53:45.357Z,10.10
2023-02-09T18:56:18.822Z,10.65
2023-02-09T18:58:47.059Z,10.30
2023-02-09T19:01:14.912Z,10.55
2023-02-09T19:03:42.796Z,10.55
2023-02-09T19:06:12.126Z,10.50
2023-02-09T19:08:41.495Z,11.43
2023-02-09T19:11:14.306Z,11.15
2023-02-09T19:13:42.341Z,11.25
2023-02-09T19:16:12.790Z,11.30
2023-02-09T19:18:40.696Z,11.40
2023-02-09T19:21:08.676Z,10.95
2023-02-09T19:23:36.524Z,10.93
2023-02-09T19:26:09.244Z,11.20
2023-02-09T19:28:37.192Z,10.38
2023-02-09T19:31:05.154Z,10.30
2023-02-09T19:33:33.160Z,10.50
2023-02-09T19:36:01.383Z,10.48
2023-02-09T19:38:29.346Z,11.23
2023-02-09T19:41:09.845Z,10.00
2023-02-09T19:43:40.039Z,9.73
2023-02-09T19:46:10.023Z,11.05
2023-02-09T19:48:40.030Z,9.80
2023-02-09T19:51:09.302Z,10.98
2023-02-09T19:53:37.436Z,10.32
2023-02-09T19:56:05.705Z,11.38
2023-02-09T19:58:33.819Z,11.02
2023-02-09T20:01:02.980Z,11.25
2023-02-09T20:03:31.062Z,10.68
2023-02-09T20:05:58.890Z,11.07
2023-02-09T20:08:26.716Z,11.48
2023-02-09T20:10:54.532Z,12.10
2023-02-09T20:15:56.003Z,11.77
2023-02-09T20:18:25.254Z,11.77
2023-02-09T20:20:53.219Z,11.60
2023-02-09T20:23:21.033Z,12.35
2023-02-09T20:25:48.843Z,12.30
2023-02-09T20:28:17.149Z,12.45
2023-02-09T20:30:47.505Z,11.57
2023-02-09T20:33:16.232Z,13.60
2023-02-09T20:35:46.691Z,13.13
2023-02-09T20:38:14.565Z,12.30
2023-02-09T20:40:43.009Z,11.88
2023-02-09T20:43:29.758Z,12.20
2023-02-09T20:46:15.166Z,12.02
2023-02-09T20:48:46.057Z,12.63
2023-02-09T20:51:23.674Z,11.85
2023-02-09T20:54:00.272Z,12.68
2023-02-09T20:56:33.180Z,12.20
2023-02-09T20:59:01.463Z,12.95
2023-02-09T21:01:29.990Z,12.85
2023-02-09T21:04:01.192Z,13.82
2023-02-09T21:06:30.704Z,13.65
2023-02-09T21:08:58.799Z,14.70
2023-02-09T21:11:32.546Z,14.38
2023-02-09T21:14:01.972Z,14.40
2023-02-09T21:16:30.907Z,14.10
2023-02-09T21:18:59.698Z,13.73
2023-02-09T21:21:45.013Z,14.55
2023-02-09T21:24:13.049Z,13.40
2023-02-09T21:26:42.751Z,13.23
2023-02-09T21:29:11.777Z,13.45
2023-02-09T21:31:40.501Z,13.70
2023-02-09T21:34:09.055Z,13.05
2023-02-09T21:40:07.169Z,12.93
2023-02-09T21:42:39.372Z,13.80
2023-02-09T21:45:10.179Z,13.25
2023-02-09T21:47:40.614Z,13.75
2023-02-09T21:50:12.279Z,14.07
2023-02-09T21:52:43.668Z,14.25
2023-02-09T21:55:13.014Z,13.43
2023-02-09T21:57:41.091Z,13.80
2023-02-09T22:00:12.948Z,14.98
2023-02-09T22:02:41.309Z,14.50
2023-02-09T22:05:12.124Z,15.32
2023-02-09T22:07:46.736Z,16.20
2023-02-09T22:10:19.070Z,17.55
2023-02-09T22:12:51.993Z,16.58
2023-02-09T22:15:19.957Z,16.73
2023-02-09T22:17:48.373Z,16.52
2023-02-09T22:20:16.684Z,15.65
2023-02-09T22:22:46.110Z,16.38
2023-02-09T22:25:13.986Z,17.20
2023-02-09T22:27:42.106Z,16.88
2023-02-09T22:30:12.232Z,16.25
2023-02-09T22:32:40.302Z,15.88
2023-02-09T22:35:09.030Z,16.40
2023-02-09T22:37:36.888Z,15.75
2023-02-09T22:40:06.815Z,15.20
2023-02-09T22:42:34.751Z,15.52
2023-02-09T22:45:02.759Z,13.68
2023-02-09T22:47:30.647Z,16.35
2023-02-09T22:49:58.521Z,15.32
2023-02-09T22:52:26.389Z,16.08
2023-02-09T22:54:54.354Z,15.65
2023-02-09T22:57:23.693Z,15.15
2023-02-09T22:59:51.680Z,13.98
2023-02-09T23:02:19.585Z,16.08
2023-02-09T23:04:47.419Z,15.13
2023-02-09T23:07:15.245Z,15.50
2023-02-09T23:09:43.236Z,15.35
2023-02-09T23:12:11.133Z,15.38
2023-02-09T23:14:40.335Z,15.38
2023-02-09T23:17:08.276Z,15.05
2023-02-09T23:19:36.154Z,15.25
2023-02-09T23:22:04.251Z,15.50
2023-02-09T23:24:32.083Z,15.77
2023-02-09T23:27:00.180Z,14.27
2023-02-09T23:29:28.249Z,14.13
2023-02-09T23:31:58.194Z,14.45
2023-02-09T23:34:25.992Z,14.15
2023-02-09T23:36:53.832Z,14.35
2023-02-09T23:39:26.024Z,14.15
2023-02-09T23:41:54.048Z,14.00
2023-02-09T23:44:21.838Z,14.18
2023-02-09T23:46:50.010Z,14.35
2023-02-09T23:49:19.253Z,13.40
2023-02-09T23:51:47.575Z,14.13
2023-02-09T23:54:15.433Z,14.02
2023-02-09T23:56:45.540Z,14.45
2023-02-09T23:59:16.277Z,14.05
